KHAI/HAI METAR and TAF weather

Enter ICAO airport designator
Station Type Date Time Source
KHAI METAR 2019/04/22 17:55 UTC NOAA

KHAI 221755Z AUTO 18012G18KT 10SM CLR 22/07 A3010 RMK AO2 T02240068 10228 20112


Station Type Date Time Source
KHAI Decoded METAR 2019/04/22 17:55 UTC NOAA

Station name not available
Apr 22, 2019 - 01:55 PM EDT / 2019.04.22 1755 UTC
Wind: from the S (180 degrees) at 14 MPH (12 KT) gusting to 21 MPH (18 KT):0
Visibility: 10 mile(s):0
Sky conditions: clear
Temperature: 72.3 F (22.4 C)
Dew Point: 44.2 F (6.8 C)
Relative Humidity: 36%
Pressure (altimeter): 30.1 in. Hg (1019 hPa)
ob: KHAI 221755Z AUTO 18012G18KT 10SM CLR 22/07 A3010 RMK AO2 T02240068 10228 20112
cycle: 18

Station Type Date Time Source
KHAI TAF UTC NOAA

Error!

Example: see airport list